PWSweather.com
Personal Weather Stations
Station Observations
1A3COP
Copperhill Airport Community, Copperhill, TN 37317

Copperhill Airport CommunityCopperhill, TN 37317

Lat: 35.015465, Lon: -84.340598

Elevation: 1830

Station Type: Acurite Pro 5 in 1

High Low Average
Temperature 31.1°F-0.5°F 18.5°F-7.5°F 21.1°F-6.1°F
Dew Point 25.9°F-3.4°F 17.0°F-8.3°F 19.3°F-7.1°F
Winds 2.3 mph NNE3.7 mph NNE Calm Calm 0.1 mph 0.2 mph
Wind Gusts 3.5 mph5.6 mph -- 0.2 mph0.3 mph
Humidity 96% 80% 93%
Pressure 28.38 in961.10 in 28.30 in958.30 in -
Precipitation 0.00 in0.00 in - -
Hour Temp Dew Point Humidity Winds Wind Gusts Pressure Precip Precip Rate Daily Precip Total
12:00 AM 21.2°F-6.0°C 19.0°F-7.2°C 91% Calm Calm -- 28.32 in959.0 mb - 0.00 in0.0 mm 0.00 in0.0 mm
12:01 AM 21.2°F-6.0°C 19.0°F-7.2°C 91% Calm Calm -- 28.31 in958.7 mb - 0.00 in0.0 mm 0.00 in0.0 mm
12:02 AM 21.2°F-6.0°C 19.0°F-7.2°C 91% Calm Calm -- 28.31 in958.7 mb - 0.00 in0.0 mm 0.00 in0.0 mm
12:03 AM 21.0°F-6.1°C 18.8°F-7.3°C 91% Calm Calm -- 28.31 in958.7 mb - 0.00 in0.0 mm 0.00 in0.0 mm
12:04 AM 21.0°F-6.1°C 18.8°F-7.3°C 91% Calm Calm -- 28.31 in958.7 mb - 0.00 in0.0 mm 0.00 in0.0 mm
12:05 AM 21.0°F-6.1°C 19.0°F-7.2°C 92% Calm Calm -- 28.31 in958.7 mb - 0.00 in0.0 mm 0.00 in0.0 mm
12:06 AM 21.0°F-6.1°C 19.0°F-7.2°C 92% Calm Calm -- 28.31 in958.7 mb - 0.00 in0.0 mm 0.00 in0.0 mm
12:07 AM 20.8°F-6.2°C 18.9°F-7.3°C 92% Calm Calm -- 28.31 in958.7 mb - 0.00 in0.0 mm 0.00 in0.0 mm
12:08 AM 20.8°F-6.2°C 19.1°F-7.2°C 93% Calm Calm -- 28.31 in958.7 mb - 0.00 in0.0 mm 0.00 in0.0 mm
12:09 AM 20.7°F-6.3°C 19.0°F-7.2°C 93% Calm Calm -- 28.31 in958.7 mb - 0.00 in0.0 mm 0.00 in0.0 mm
12:10 AM 20.7°F-6.3°C 19.0°F-7.2°C 93% Calm Calm -- 28.31 in958.7 mb - 0.00 in0.0 mm 0.00 in0.0 mm
12:11 AM 20.5°F-6.4°C 18.8°F-7.3°C 93% Calm Calm -- 28.31 in958.7 mb - 0.00 in0.0 mm 0.00 in0.0 mm
12:12 AM 20.5°F-6.4°C 18.8°F-7.3°C 93% Calm Calm -- 28.31 in958.7 mb - 0.00 in0.0 mm 0.00 in0.0 mm
12:13 AM 20.5°F-6.4°C 18.8°F-7.3°C 93% Calm Calm -- 28.31 in958.7 mb - 0.00 in0.0 mm 0.00 in0.0 mm
12:14 AM 20.5°F-6.4°C 18.8°F-7.3°C 93% Calm Calm -- 28.31 in958.7 mb - 0.00 in0.0 mm 0.00 in0.0 mm
12:15 AM 20.3°F-6.5°C 18.6°F-7.4°C 93% Calm Calm -- 28.31 in958.7 mb - 0.00 in0.0 mm 0.00 in0.0 mm
12:16 AM 20.3°F-6.5°C 18.8°F-7.3°C 94% Calm Calm -- 28.31 in958.7 mb - 0.00 in0.0 mm 0.00 in0.0 mm
12:17 AM 20.3°F-6.5°C 18.8°F-7.3°C 94% Calm Calm -- 28.31 in958.7 mb - 0.00 in0.0 mm 0.00 in0.0 mm
12:18 AM 20.3°F-6.5°C 18.8°F-7.3°C 94% Calm Calm -- 28.31 in958.7 mb - 0.00 in0.0 mm 0.00 in0.0 mm
12:19 AM 20.3°F-6.5°C 18.8°F-7.3°C 94% Calm Calm -- 28.31 in958.7 mb - 0.00 in0.0 mm 0.00 in0.0 mm
12:20 AM 20.3°F-6.5°C 18.8°F-7.3°C 94% Calm Calm -- 28.31 in958.7 mb - 0.00 in0.0 mm 0.00 in0.0 mm
12:21 AM 20.3°F-6.5°C 18.8°F-7.3°C 94% Calm Calm -- 28.31 in958.7 mb - 0.00 in0.0 mm 0.00 in0.0 mm
12:22 AM 20.3°F-6.5°C 18.8°F-7.3°C 94% Calm Calm -- 28.31 in958.7 mb - 0.00 in0.0 mm 0.00 in0.0 mm
12:23 AM 20.3°F-6.5°C 18.8°F-7.3°C 94% Calm Calm -- 28.31 in958.7 mb - 0.00 in0.0 mm 0.00 in0.0 mm
12:24 AM 20.2°F-6.6°C 18.7°F-7.4°C 94% Calm Calm -- 28.31 in958.7 mb - 0.00 in0.0 mm 0.00 in0.0 mm
12:25 AM 19.9°F-6.7°C 18.5°F-7.5°C 94% Calm Calm -- 28.31 in958.7 mb - 0.00 in0.0 mm 0.00 in0.0 mm
12:26 AM 19.9°F-6.7°C 18.5°F-7.5°C 94% Calm Calm -- 28.31 in958.7 mb - 0.00 in0.0 mm 0.00 in0.0 mm
12:27 AM 19.9°F-6.7°C 18.5°F-7.5°C 94% Calm Calm -- 28.31 in958.7 mb - 0.00 in0.0 mm 0.00 in0.0 mm
12:28 AM 19.9°F-6.7°C 18.5°F-7.5°C 94% Calm Calm -- 28.31 in958.7 mb - 0.00 in0.0 mm 0.00 in0.0 mm
12:29 AM 19.9°F-6.7°C 18.5°F-7.5°C 94% Calm Calm -- 28.31 in958.7 mb - 0.00 in0.0 mm 0.00 in0.0 mm
12:30 AM 19.9°F-6.7°C 18.4°F-7.6°C 94% Calm Calm -- 28.31 in958.7 mb - 0.00 in0.0 mm 0.00 in0.0 mm
12:31 AM 19.6°F-6.9°C 18.2°F-7.7°C 94% Calm Calm -- 28.31 in958.7 mb - 0.00 in0.0 mm 0.00 in0.0 mm
12:32 AM 19.5°F-6.9°C 18.0°F-7.8°C 94% Calm Calm -- 28.31 in958.7 mb - 0.00 in0.0 mm 0.00 in0.0 mm
12:33 AM 19.2°F-7.1°C 17.8°F-7.9°C 94% Calm Calm -- 28.31 in958.7 mb - 0.00 in0.0 mm 0.00 in0.0 mm
12:34 AM 19.2°F-7.1°C 17.8°F-7.9°C 94% Calm Calm -- 28.31 in958.7 mb - 0.00 in0.0 mm 0.00 in0.0 mm
12:35 AM 19.2°F-7.1°C 17.8°F-7.9°C 94% Calm Calm -- 28.31 in958.7 mb - 0.00 in0.0 mm 0.00 in0.0 mm
12:36 AM 19.2°F-7.1°C 17.8°F-7.9°C 94% Calm Calm -- 28.31 in958.7 mb - 0.00 in0.0 mm 0.00 in0.0 mm
12:37 AM 19.2°F-7.1°C 17.8°F-7.9°C 94% Calm Calm -- 28.31 in958.7 mb - 0.00 in0.0 mm 0.00 in0.0 mm
12:38 AM 19.2°F-7.1°C 17.8°F-7.9°C 94% Calm Calm -- 28.31 in958.7 mb - 0.00 in0.0 mm 0.00 in0.0 mm
12:39 AM 19.2°F-7.1°C 17.8°F-7.9°C 94% Calm Calm -- 28.31 in958.7 mb - 0.00 in0.0 mm 0.00 in0.0 mm
12:40 AM 19.2°F-7.1°C 17.5°F-8.1°C 93% Calm Calm -- 28.31 in958.7 mb - 0.00 in0.0 mm 0.00 in0.0 mm
12:41 AM 19.2°F-7.1°C 17.5°F-8.1°C 93% Calm Calm -- 28.31 in958.7 mb - 0.00 in0.0 mm 0.00 in0.0 mm
12:42 AM 19.2°F-7.1°C 17.5°F-8.1°C 93% Calm Calm -- 28.31 in958.7 mb - 0.00 in0.0 mm 0.00 in0.0 mm
12:43 AM 19.2°F-7.1°C 17.5°F-8.1°C 93% Calm Calm -- 28.31 in958.7 mb - 0.00 in0.0 mm 0.00 in0.0 mm
12:44 AM 19.2°F-7.1°C 17.5°F-8.1°C 93% Calm Calm -- 28.31 in958.7 mb - 0.00 in0.0 mm 0.00 in0.0 mm
12:45 AM 19.2°F-7.1°C 17.5°F-8.1°C 93% Calm Calm -- 28.31 in958.7 mb - 0.00 in0.0 mm 0.00 in0.0 mm
12:46 AM 19.2°F-7.1°C 17.5°F-8.1°C 93% Calm Calm -- 28.31 in958.7 mb - 0.00 in0.0 mm 0.00 in0.0 mm
12:47 AM 19.6°F-6.9°C 17.9°F-7.8°C 93% Calm Calm -- 28.31 in958.7 mb - 0.00 in0.0 mm 0.00 in0.0 mm
12:48 AM 19.6°F-6.9°C 17.9°F-7.8°C 93% Calm Calm -- 28.31 in958.7 mb - 0.00 in0.0 mm 0.00 in0.0 mm
12:49 AM 19.8°F-6.8°C 18.3°F-7.6°C 94% Calm Calm -- 28.31 in958.7 mb - 0.00 in0.0 mm 0.00 in0.0 mm
12:50 AM 19.9°F-6.7°C 18.4°F-7.6°C 94% Calm Calm -- 28.30 in958.3 mb - 0.00 in0.0 mm 0.00 in0.0 mm
12:51 AM 19.9°F-6.7°C 18.5°F-7.5°C 94% Calm Calm -- 28.30 in958.3 mb - 0.00 in0.0 mm 0.00 in0.0 mm
12:52 AM 19.9°F-6.7°C 18.4°F-7.6°C 94% Calm Calm -- 28.30 in958.3 mb - 0.00 in0.0 mm 0.00 in0.0 mm
12:53 AM 19.7°F-6.8°C 18.2°F-7.7°C 94% Calm Calm -- 28.30 in958.3 mb - 0.00 in0.0 mm 0.00 in0.0 mm
12:54 AM 19.3°F-7.1°C 17.9°F-7.8°C 94% Calm Calm -- 28.30 in958.3 mb - 0.00 in0.0 mm 0.00 in0.0 mm
12:55 AM 19.2°F-7.1°C 17.8°F-7.9°C 94% Calm Calm -- 28.30 in958.3 mb - 0.00 in0.0 mm 0.00 in0.0 mm
12:56 AM 19.2°F-7.1°C 17.8°F-7.9°C 94% Calm Calm -- 28.30 in958.3 mb - 0.00 in0.0 mm 0.00 in0.0 mm
12:57 AM 19.2°F-7.1°C 17.8°F-7.9°C 94% Calm Calm -- 28.30 in958.3 mb - 0.00 in0.0 mm 0.00 in0.0 mm
12:58 AM 19.2°F-7.1°C 17.8°F-7.9°C 94% Calm Calm -- 28.30 in958.3 mb - 0.00 in0.0 mm 0.00 in0.0 mm
12:59 AM 19.2°F-7.1°C 17.8°F-7.9°C 94% Calm Calm -- 28.30 in958.3 mb - 0.00 in0.0 mm 0.00 in0.0 mm
01:00 AM 19.2°F-7.1°C 17.8°F-7.9°C 94% Calm Calm -- 28.30 in958.3 mb - 0.00 in0.0 mm 0.00 in0.0 mm
01:01 AM 19.2°F-7.1°C 17.8°F-7.9°C 94% Calm Calm -- 28.30 in958.3 mb - 0.00 in0.0 mm 0.00 in0.0 mm
01:02 AM 19.2°F-7.1°C 17.8°F-7.9°C 94% Calm Calm -- 28.30 in958.3 mb - 0.00 in0.0 mm 0.00 in0.0 mm
01:03 AM 19.2°F-7.1°C 17.8°F-7.9°C 94% Calm Calm -- 28.30 in958.3 mb - 0.00 in0.0 mm 0.00 in0.0 mm
01:04 AM 19.2°F-7.1°C 17.8°F-7.9°C 94% Calm Calm -- 28.30 in958.3 mb - 0.00 in0.0 mm 0.00 in0.0 mm
01:05 AM 19.2°F-7.1°C 17.8°F-7.9°C 94% Calm Calm -- 28.30 in958.3 mb - 0.00 in0.0 mm 0.00 in0.0 mm
01:06 AM 19.2°F-7.1°C 17.8°F-7.9°C 94% Calm Calm -- 28.30 in958.3 mb - 0.00 in0.0 mm 0.00 in0.0 mm
01:07 AM 19.2°F-7.1°C 17.8°F-7.9°C 94% Calm Calm -- 28.30 in958.3 mb - 0.00 in0.0 mm 0.00 in0.0 mm
01:08 AM 19.2°F-7.1°C 17.8°F-7.9°C 94% Calm Calm -- 28.30 in958.3 mb - 0.00 in0.0 mm 0.00 in0.0 mm
01:09 AM 19.2°F-7.1°C 17.8°F-7.9°C 94% Calm Calm -- 28.30 in958.3 mb - 0.00 in0.0 mm 0.00 in0.0 mm
01:10 AM 19.2°F-7.1°C 17.8°F-7.9°C 94% Calm Calm -- 28.30 in958.3 mb - 0.00 in0.0 mm 0.00 in0.0 mm
01:11 AM 19.2°F-7.1°C 17.8°F-7.9°C 94% Calm Calm -- 28.30 in958.3 mb - 0.00 in0.0 mm 0.00 in0.0 mm
01:12 AM 19.2°F-7.1°C 17.8°F-7.9°C 94% Calm Calm -- 28.30 in958.3 mb - 0.00 in0.0 mm 0.00 in0.0 mm
01:13 AM 19.2°F-7.1°C 17.8°F-7.9°C 94% Calm Calm -- 28.30 in958.3 mb - 0.00 in0.0 mm 0.00 in0.0 mm
01:14 AM 19.2°F-7.1°C 17.8°F-7.9°C 94% Calm Calm -- 28.30 in958.3 mb - 0.00 in0.0 mm 0.00 in0.0 mm
01:15 AM 19.4°F-7.0°C 18.0°F-7.8°C 94% Calm Calm -- 28.30 in958.3 mb - 0.00 in0.0 mm 0.00 in0.0 mm
01:16 AM 19.4°F-7.0°C 18.0°F-7.8°C 94% Calm Calm -- 28.30 in958.3 mb - 0.00 in0.0 mm 0.00 in0.0 mm
01:17 AM 19.4°F-7.0°C 18.0°F-7.8°C 94% Calm Calm -- 28.30 in958.3 mb - 0.00 in0.0 mm 0.00 in0.0 mm
01:18 AM 19.4°F-7.0°C 18.0°F-7.8°C 94% Calm Calm -- 28.30 in958.3 mb - 0.00 in0.0 mm 0.00 in0.0 mm
01:19 AM 19.4°F-7.0°C 18.0°F-7.8°C 94% Calm Calm -- 28.30 in958.3 mb - 0.00 in0.0 mm 0.00 in0.0 mm
01:20 AM 19.6°F-6.9°C 18.1°F-7.7°C 94% Calm Calm -- 28.30 in958.3 mb - 0.00 in0.0 mm 0.00 in0.0 mm
01:21 AM 19.6°F-6.9°C 18.2°F-7.7°C 94% Calm Calm -- 28.30 in958.3 mb - 0.00 in0.0 mm 0.00 in0.0 mm
01:22 AM 19.6°F-6.9°C 18.2°F-7.7°C 94% Calm Calm -- 28.30 in958.3 mb - 0.00 in0.0 mm 0.00 in0.0 mm
01:23 AM 19.8°F-6.8°C 18.3°F-7.6°C 94% Calm Calm -- 28.30 in958.3 mb - 0.00 in0.0 mm 0.00 in0.0 mm
01:24 AM 19.8°F-6.8°C 18.4°F-7.6°C 94% Calm Calm -- 28.30 in958.3 mb - 0.00 in0.0 mm 0.00 in0.0 mm
01:25 AM 19.8°F-6.8°C 18.4°F-7.6°C 94% Calm Calm -- 28.30 in958.3 mb - 0.00 in0.0 mm 0.00 in0.0 mm
01:26 AM 19.8°F-6.8°C 18.4°F-7.6°C 94% Calm Calm -- 28.30 in958.3 mb - 0.00 in0.0 mm 0.00 in0.0 mm
01:27 AM 19.8°F-6.8°C 18.4°F-7.6°C 94% Calm Calm -- 28.30 in958.3 mb - 0.00 in0.0 mm 0.00 in0.0 mm
01:28 AM 19.8°F-6.8°C 18.4°F-7.6°C 94% Calm Calm -- 28.30 in958.3 mb - 0.00 in0.0 mm 0.00 in0.0 mm
01:29 AM 19.8°F-6.8°C 18.4°F-7.6°C 94% Calm Calm -- 28.30 in958.3 mb - 0.00 in0.0 mm 0.00 in0.0 mm
01:30 AM 19.8°F-6.8°C 18.4°F-7.6°C 94% Calm Calm -- 28.30 in958.3 mb - 0.00 in0.0 mm 0.00 in0.0 mm
01:31 AM 19.8°F-6.8°C 18.4°F-7.6°C 94% Calm Calm -- 28.30 in958.3 mb - 0.00 in0.0 mm 0.00 in0.0 mm
01:32 AM 19.9°F-6.7°C 18.4°F-7.6°C 94% Calm Calm -- 28.30 in958.3 mb - 0.00 in0.0 mm 0.00 in0.0 mm
01:33 AM 19.9°F-6.7°C 18.5°F-7.5°C 94% Calm Calm -- 28.30 in958.3 mb - 0.00 in0.0 mm 0.00 in0.0 mm
01:34 AM 19.9°F-6.7°C 18.5°F-7.5°C 94% Calm Calm -- 28.30 in958.3 mb - 0.00 in0.0 mm 0.00 in0.0 mm
01:35 AM 19.9°F-6.7°C 18.5°F-7.5°C 94% Calm Calm -- 28.30 in958.3 mb - 0.00 in0.0 mm 0.00 in0.0 mm
01:36 AM 19.9°F-6.7°C 18.5°F-7.5°C 94% Calm Calm -- 28.30 in958.3 mb - 0.00 in0.0 mm 0.00 in0.0 mm
01:37 AM 19.9°F-6.7°C 18.5°F-7.5°C 94% Calm Calm -- 28.30 in958.3 mb - 0.00 in0.0 mm 0.00 in0.0 mm
01:38 AM 19.8°F-6.8°C 18.4°F-7.6°C 94% Calm Calm -- 28.30 in958.3 mb - 0.00 in0.0 mm 0.00 in0.0 mm
01:39 AM 19.8°F-6.8°C 18.4°F-7.6°C 94% Calm Calm -- 28.30 in958.3 mb - 0.00 in0.0 mm 0.00 in0.0 mm
01:40 AM 19.8°F-6.8°C 18.4°F-7.6°C 94% Calm Calm -- 28.30 in958.3 mb - 0.00 in0.0 mm 0.00 in0.0 mm
01:41 AM 19.9°F-6.7°C 18.5°F-7.5°C 94% Calm Calm -- 28.30 in958.3 mb - 0.00 in0.0 mm 0.00 in0.0 mm
01:42 AM 19.9°F-6.7°C 18.5°F-7.5°C 94% Calm Calm -- 28.30 in958.3 mb - 0.00 in0.0 mm 0.00 in0.0 mm
01:43 AM 19.9°F-6.7°C 18.4°F-7.6°C 94% Calm Calm -- 28.30 in958.3 mb - 0.00 in0.0 mm 0.00 in0.0 mm
01:44 AM 19.8°F-6.8°C 18.4°F-7.6°C 94% Calm Calm -- 28.30 in958.3 mb - 0.00 in0.0 mm 0.00 in0.0 mm
01:45 AM 19.8°F-6.8°C 18.4°F-7.6°C 94% Calm Calm -- 28.30 in958.3 mb - 0.00 in0.0 mm 0.00 in0.0 mm
01:46 AM 19.8°F-6.8°C 18.4°F-7.6°C 94% Calm Calm -- 28.30 in958.3 mb - 0.00 in0.0 mm 0.00 in0.0 mm
01:47 AM 19.8°F-6.8°C 18.4°F-7.6°C 94% Calm Calm -- 28.30 in958.3 mb - 0.00 in0.0 mm 0.00 in0.0 mm
01:48 AM 19.8°F-6.8°C 18.4°F-7.6°C 94% Calm Calm -- 28.30 in958.3 mb - 0.00 in0.0 mm 0.00 in0.0 mm
01:49 AM 19.8°F-6.8°C 18.4°F-7.6°C 94% Calm Calm -- 28.30 in958.3 mb - 0.00 in0.0 mm 0.00 in0.0 mm
01:50 AM 19.8°F-6.8°C 18.4°F-7.6°C 94% Calm Calm -- 28.30 in958.3 mb - 0.00 in0.0 mm 0.00 in0.0 mm
01:51 AM 20.0°F-6.7°C 18.6°F-7.4°C 94% Calm Calm -- 28.30 in958.3 mb - 0.00 in0.0 mm 0.00 in0.0 mm
01:52 AM 20.1°F-6.6°C 18.7°F-7.4°C 94% Calm Calm -- 28.30 in958.3 mb - 0.00 in0.0 mm 0.00 in0.0 mm
01:53 AM 20.1°F-6.6°C 18.7°F-7.4°C 94% Calm Calm -- 28.30 in958.3 mb - 0.00 in0.0 mm 0.00 in0.0 mm
01:54 AM 20.1°F-6.6°C 18.7°F-7.4°C 94% Calm Calm -- 28.30 in958.3 mb - 0.00 in0.0 mm 0.00 in0.0 mm
01:55 AM 20.1°F-6.6°C 18.7°F-7.4°C 94% Calm Calm -- 28.30 in958.3 mb - 0.00 in0.0 mm 0.00 in0.0 mm
01:56 AM 20.1°F-6.6°C 18.7°F-7.4°C 94% Calm Calm -- 28.30 in958.3 mb - 0.00 in0.0 mm 0.00 in0.0 mm
01:57 AM 20.1°F-6.6°C 18.7°F-7.4°C 94% Calm Calm -- 28.30 in958.3 mb - 0.00 in0.0 mm 0.00 in0.0 mm
01:58 AM 20.1°F-6.6°C 18.7°F-7.4°C 94% Calm Calm -- 28.30 in958.3 mb - 0.00 in0.0 mm 0.00 in0.0 mm
01:59 AM 20.1°F-6.6°C 18.7°F-7.4°C 94% Calm Calm -- 28.30 in958.3 mb - 0.00 in0.0 mm 0.00 in0.0 mm
02:00 AM 20.1°F-6.6°C 18.7°F-7.4°C 94% Calm Calm -- 28.30 in958.3 mb - 0.00 in0.0 mm 0.00 in0.0 mm
02:01 AM 20.1°F-6.6°C 18.7°F-7.4°C 94% Calm Calm -- 28.30 in958.3 mb - 0.00 in0.0 mm 0.00 in0.0 mm
02:02 AM 20.1°F-6.6°C 18.7°F-7.4°C 94% Calm Calm -- 28.31 in958.7 mb - 0.00 in0.0 mm 0.00 in0.0 mm
02:03 AM 20.1°F-6.6°C 18.7°F-7.4°C 94% Calm Calm -- 28.31 in958.7 mb - 0.00 in0.0 mm 0.00 in0.0 mm
02:04 AM 20.0°F-6.7°C 18.5°F-7.5°C 94% Calm Calm -- 28.31 in958.7 mb - 0.00 in0.0 mm 0.00 in0.0 mm
02:05 AM 19.9°F-6.7°C 18.5°F-7.5°C 94% Calm Calm -- 28.31 in958.7 mb - 0.00 in0.0 mm 0.00 in0.0 mm
02:06 AM 19.9°F-6.7°C 18.5°F-7.5°C 94% Calm Calm -- 28.31 in958.7 mb - 0.00 in0.0 mm 0.00 in0.0 mm
02:07 AM 19.9°F-6.7°C 18.5°F-7.5°C 94% Calm Calm -- 28.31 in958.7 mb - 0.00 in0.0 mm 0.00 in0.0 mm
02:08 AM 19.9°F-6.7°C 18.5°F-7.5°C 94% Calm Calm -- 28.31 in958.7 mb - 0.00 in0.0 mm 0.00 in0.0 mm
02:09 AM 19.9°F-6.7°C 18.4°F-7.6°C 94% Calm Calm -- 28.31 in958.7 mb - 0.00 in0.0 mm 0.00 in0.0 mm
02:10 AM 19.7°F-6.8°C 18.0°F-7.8°C 93% Calm Calm -- 28.31 in958.7 mb - 0.00 in0.0 mm 0.00 in0.0 mm
02:11 AM 19.6°F-6.9°C 17.9°F-7.8°C 93% Calm Calm -- 28.31 in958.7 mb - 0.00 in0.0 mm 0.00 in0.0 mm
02:12 AM 19.6°F-6.9°C 17.9°F-7.8°C 93% Calm Calm -- 28.31 in958.7 mb - 0.00 in0.0 mm 0.00 in0.0 mm
02:13 AM 19.6°F-6.9°C 17.9°F-7.8°C 93% Calm Calm -- 28.31 in958.7 mb - 0.00 in0.0 mm 0.00 in0.0 mm
02:14 AM 19.6°F-6.9°C 17.9°F-7.8°C 93% Calm Calm -- 28.31 in958.7 mb - 0.00 in0.0 mm 0.00 in0.0 mm
02:15 AM 19.6°F-6.9°C 17.9°F-7.8°C 93% Calm Calm -- 28.32 in959.0 mb - 0.00 in0.0 mm 0.00 in0.0 mm
02:16 AM 19.6°F-6.9°C 17.9°F-7.8°C 93% Calm Calm -- 28.32 in959.0 mb - 0.00 in0.0 mm 0.00 in0.0 mm
02:17 AM 19.6°F-6.9°C 17.9°F-7.8°C 93% Calm Calm -- 28.32 in959.0 mb - 0.00 in0.0 mm 0.00 in0.0 mm
02:18 AM 19.6°F-6.9°C 17.9°F-7.8°C 93% Calm Calm -- 28.32 in959.0 mb - 0.00 in0.0 mm 0.00 in0.0 mm
02:19 AM 19.6°F-6.9°C 17.9°F-7.8°C 93% Calm Calm -- 28.32 in959.0 mb - 0.00 in0.0 mm 0.00 in0.0 mm
02:20 AM 19.4°F-7.0°C 17.7°F-7.9°C 93% Calm Calm -- 28.32 in959.0 mb - 0.00 in0.0 mm 0.00 in0.0 mm
02:21 AM 19.2°F-7.1°C 17.5°F-8.1°C 93% Calm Calm -- 28.32 in959.0 mb - 0.00 in0.0 mm 0.00 in0.0 mm
02:22 AM 19.2°F-7.1°C 17.5°F-8.1°C 93% Calm Calm -- 28.32 in959.0 mb - 0.00 in0.0 mm 0.00 in0.0 mm
02:23 AM 19.2°F-7.1°C 17.5°F-8.1°C 93% Calm Calm -- 28.32 in959.0 mb - 0.00 in0.0 mm 0.00 in0.0 mm
02:24 AM 19.2°F-7.1°C 17.5°F-8.1°C 93% Calm Calm -- 28.32 in959.0 mb - 0.00 in0.0 mm 0.00 in0.0 mm
02:25 AM 19.6°F-6.9°C 17.9°F-7.8°C 93% Calm Calm -- 28.32 in959.0 mb - 0.00 in0.0 mm 0.00 in0.0 mm
02:26 AM 19.6°F-6.9°C 17.9°F-7.8°C 93% Calm Calm -- 28.32 in959.0 mb - 0.00 in0.0 mm 0.00 in0.0 mm
02:27 AM 19.6°F-6.9°C 18.0°F-7.8°C 93% Calm Calm -- 28.32 in959.0 mb - 0.00 in0.0 mm 0.00 in0.0 mm
02:28 AM 19.8°F-6.8°C 18.1°F-7.7°C 93% Calm Calm -- 28.32 in959.0 mb - 0.00 in0.0 mm 0.00 in0.0 mm
02:29 AM 19.8°F-6.8°C 18.1°F-7.7°C 93% Calm Calm -- 28.32 in959.0 mb - 0.00 in0.0 mm 0.00 in0.0 mm
02:30 AM 19.8°F-6.8°C 18.1°F-7.7°C 93% Calm Calm -- 28.32 in959.0 mb - 0.00 in0.0 mm 0.00 in0.0 mm
02:31 AM 19.8°F-6.8°C 18.1°F-7.7°C 93% Calm Calm -- 28.32 in959.0 mb - 0.00 in0.0 mm 0.00 in0.0 mm
02:32 AM 19.8°F-6.8°C 18.1°F-7.7°C 93% Calm Calm -- 28.32 in959.0 mb - 0.00 in0.0 mm 0.00 in0.0 mm
02:33 AM 19.8°F-6.8°C 18.1°F-7.7°C 93% Calm Calm -- 28.32 in959.0 mb - 0.00 in0.0 mm 0.00 in0.0 mm
02:34 AM 19.8°F-6.8°C 18.1°F-7.7°C 93% Calm Calm -- 28.32 in959.0 mb - 0.00 in0.0 mm 0.00 in0.0 mm
02:35 AM 19.8°F-6.8°C 18.1°F-7.7°C 93% Calm Calm -- 28.32 in959.0 mb - 0.00 in0.0 mm 0.00 in0.0 mm
02:36 AM 19.7°F-6.8°C 18.0°F-7.8°C 93% Calm Calm -- 28.32 in959.0 mb - 0.00 in0.0 mm 0.00 in0.0 mm
02:37 AM 19.4°F-7.0°C 17.7°F-7.9°C 93% Calm Calm -- 28.32 in959.0 mb - 0.00 in0.0 mm 0.00 in0.0 mm
02:38 AM 19.1°F-7.2°C 17.4°F-8.1°C 93% Calm Calm -- 28.32 in959.0 mb - 0.00 in0.0 mm 0.00 in0.0 mm
02:39 AM 19.0°F-7.2°C 17.3°F-8.2°C 93% Calm Calm -- 28.32 in959.0 mb - 0.00 in0.0 mm 0.00 in0.0 mm
02:40 AM 19.0°F-7.2°C 17.3°F-8.2°C 93% Calm Calm -- 28.32 in959.0 mb - 0.00 in0.0 mm 0.00 in0.0 mm
02:41 AM 19.2°F-7.1°C 17.5°F-8.1°C 93% Calm Calm -- 28.32 in959.0 mb - 0.00 in0.0 mm 0.00 in0.0 mm
02:42 AM 19.4°F-7.0°C 17.7°F-7.9°C 93% Calm Calm -- 28.32 in959.0 mb - 0.00 in0.0 mm 0.00 in0.0 mm
02:43 AM 19.4°F-7.0°C 17.7°F-7.9°C 93% Calm Calm -- 28.32 in959.0 mb - 0.00 in0.0 mm 0.00 in0.0 mm
02:44 AM 19.4°F-7.0°C 17.7°F-7.9°C 93% Calm Calm -- 28.32 in959.0 mb - 0.00 in0.0 mm 0.00 in0.0 mm
02:45 AM 19.4°F-7.0°C 17.7°F-7.9°C 93% Calm Calm -- 28.32 in959.0 mb - 0.00 in0.0 mm 0.00 in0.0 mm
02:46 AM 19.4°F-7.0°C 17.7°F-7.9°C 93% Calm Calm -- 28.32 in959.0 mb - 0.00 in0.0 mm 0.00 in0.0 mm
02:47 AM 19.4°F-7.0°C 17.7°F-7.9°C 93% Calm Calm -- 28.32 in959.0 mb - 0.00 in0.0 mm 0.00 in0.0 mm
02:48 AM 19.4°F-7.0°C 17.7°F-7.9°C 93% Calm Calm -- 28.32 in959.0 mb - 0.00 in0.0 mm 0.00 in0.0 mm
02:49 AM 19.4°F-7.0°C 17.7°F-7.9°C 93% Calm Calm -- 28.32 in959.0 mb - 0.00 in0.0 mm 0.00 in0.0 mm
02:50 AM 19.2°F-7.1°C 17.5°F-8.1°C 93% Calm Calm -- 28.32 in959.0 mb - 0.00 in0.0 mm 0.00 in0.0 mm
02:51 AM 19.2°F-7.1°C 17.5°F-8.1°C 93% Calm Calm -- 28.32 in959.0 mb - 0.00 in0.0 mm 0.00 in0.0 mm
02:52 AM 19.2°F-7.1°C 17.5°F-8.1°C 93% Calm Calm -- 28.32 in959.0 mb - 0.00 in0.0 mm 0.00 in0.0 mm
02:53 AM 19.2°F-7.1°C 17.5°F-8.1°C 93% Calm Calm -- 28.32 in959.0 mb - 0.00 in0.0 mm 0.00 in0.0 mm
02:54 AM 19.2°F-7.1°C 17.5°F-8.1°C 93% Calm Calm -- 28.32 in959.0 mb - 0.00 in0.0 mm 0.00 in0.0 mm
02:55 AM 19.1°F-7.2°C 17.4°F-8.1°C 93% Calm Calm -- 28.32 in959.0 mb - 0.00 in0.0 mm 0.00 in0.0 mm
02:56 AM 18.9°F-7.3°C 17.2°F-8.2°C 93% Calm Calm -- 28.32 in959.0 mb - 0.00 in0.0 mm 0.00 in0.0 mm
02:57 AM 18.9°F-7.3°C 17.2°F-8.2°C 93% Calm Calm -- 28.32 in959.0 mb - 0.00 in0.0 mm 0.00 in0.0 mm
02:58 AM 18.9°F-7.3°C 17.2°F-8.2°C 93% Calm Calm -- 28.32 in959.0 mb - 0.00 in0.0 mm 0.00 in0.0 mm
02:59 AM 18.9°F-7.3°C 17.2°F-8.2°C 93% Calm Calm -- 28.32 in959.0 mb - 0.00 in0.0 mm 0.00 in0.0 mm
03:00 AM 18.9°F-7.3°C 17.2°F-8.2°C 93% Calm Calm -- 28.32 in959.0 mb - 0.00 in0.0 mm 0.00 in0.0 mm
03:01 AM 18.9°F-7.3°C 17.2°F-8.2°C 93% Calm Calm -- 28.32 in959.0 mb - 0.00 in0.0 mm 0.00 in0.0 mm
03:02 AM 18.9°F-7.3°C 17.2°F-8.2°C 93% Calm Calm -- 28.33 in959.4 mb - 0.00 in0.0 mm 0.00 in0.0 mm
03:03 AM 18.9°F-7.3°C 17.2°F-8.2°C 93% Calm Calm -- 28.33 in959.4 mb - 0.00 in0.0 mm 0.00 in0.0 mm
03:04 AM 18.9°F-7.3°C 17.2°F-8.2°C 93% Calm Calm -- 28.33 in959.4 mb - 0.00 in0.0 mm 0.00 in0.0 mm
03:05 AM 19.0°F-7.2°C 17.3°F-8.2°C 93% Calm Calm -- 28.33 in959.4 mb - 0.00 in0.0 mm 0.00 in0.0 mm
03:06 AM 19.0°F-7.2°C 17.3°F-8.2°C 93% Calm Calm -- 28.33 in959.4 mb - 0.00 in0.0 mm 0.00 in0.0 mm
03:07 AM 19.2°F-7.1°C 17.5°F-8.1°C 93% Calm Calm -- 28.33 in959.4 mb - 0.00 in0.0 mm 0.00 in0.0 mm
03:08 AM 19.2°F-7.1°C 17.5°F-8.1°C 93% Calm Calm -- 28.33 in959.4 mb - 0.00 in0.0 mm 0.00 in0.0 mm
03:09 AM 19.2°F-7.1°C 17.5°F-8.1°C 93% Calm Calm -- 28.33 in959.4 mb - 0.00 in0.0 mm 0.00 in0.0 mm
03:10 AM 19.2°F-7.1°C 17.8°F-7.9°C 94% Calm Calm -- 28.33 in959.4 mb - 0.00 in0.0 mm 0.00 in0.0 mm
03:11 AM 19.2°F-7.1°C 17.8°F-7.9°C 94% Calm Calm -- 28.33 in959.4 mb - 0.00 in0.0 mm 0.00 in0.0 mm
03:12 AM 19.2°F-7.1°C 17.8°F-7.9°C 94% Calm Calm -- 28.33 in959.4 mb - 0.00 in0.0 mm 0.00 in0.0 mm
03:13 AM 19.2°F-7.1°C 17.8°F-7.9°C 94% Calm Calm -- 28.33 in959.4 mb - 0.00 in0.0 mm 0.00 in0.0 mm
03:14 AM 19.2°F-7.1°C 17.8°F-7.9°C 94% Calm Calm -- 28.33 in959.4 mb - 0.00 in0.0 mm 0.00 in0.0 mm
03:15 AM 19.2°F-7.1°C 17.8°F-7.9°C 94% Calm Calm -- 28.33 in959.4 mb - 0.00 in0.0 mm 0.00 in0.0 mm
03:16 AM 19.2°F-7.1°C 17.8°F-7.9°C 94% Calm Calm -- 28.33 in959.4 mb - 0.00 in0.0 mm 0.00 in0.0 mm
03:17 AM 19.2°F-7.1°C 17.8°F-7.9°C 94% Calm Calm -- 28.33 in959.4 mb - 0.00 in0.0 mm 0.00 in0.0 mm
03:18 AM 19.2°F-7.1°C 17.8°F-7.9°C 94% Calm Calm -- 28.33 in959.4 mb - 0.00 in0.0 mm 0.00 in0.0 mm
03:19 AM 19.2°F-7.1°C 17.8°F-7.9°C 94% Calm Calm -- 28.33 in959.4 mb - 0.00 in0.0 mm 0.00 in0.0 mm
03:20 AM 19.2°F-7.1°C 17.8°F-7.9°C 94% Calm Calm -- 28.33 in959.4 mb - 0.00 in0.0 mm 0.00 in0.0 mm
03:21 AM 19.2°F-7.1°C 17.8°F-7.9°C 94% Calm Calm -- 28.33 in959.4 mb - 0.00 in0.0 mm 0.00 in0.0 mm
03:22 AM 19.2°F-7.1°C 17.8°F-7.9°C 94% Calm Calm -- 28.33 in959.4 mb - 0.00 in0.0 mm 0.00 in0.0 mm
03:23 AM 19.2°F-7.1°C 17.8°F-7.9°C 94% Calm Calm -- 28.33 in959.4 mb - 0.00 in0.0 mm 0.00 in0.0 mm
03:24 AM 19.2°F-7.1°C 17.8°F-7.9°C 94% Calm Calm -- 28.33 in959.4 mb - 0.00 in0.0 mm 0.00 in0.0 mm
03:25 AM 19.2°F-7.1°C 17.8°F-7.9°C 94% Calm Calm -- 28.33 in959.4 mb - 0.00 in0.0 mm 0.00 in0.0 mm
03:26 AM 19.2°F-7.1°C 17.8°F-7.9°C 94% Calm Calm -- 28.32 in959.0 mb - 0.00 in0.0 mm 0.00 in0.0 mm
03:27 AM 19.2°F-7.1°C 17.8°F-7.9°C 94% Calm Calm -- 28.32 in959.0 mb - 0.00 in0.0 mm 0.00 in0.0 mm
03:28 AM 19.2°F-7.1°C 17.8°F-7.9°C 94% Calm Calm -- 28.32 in959.0 mb - 0.00 in0.0 mm 0.00 in0.0 mm
03:29 AM 19.2°F-7.1°C 17.8°F-7.9°C 94% Calm Calm -- 28.32 in959.0 mb - 0.00 in0.0 mm 0.00 in0.0 mm
03:30 AM 19.2°F-7.1°C 17.8°F-7.9°C 94% Calm Calm -- 28.32 in959.0 mb - 0.00 in0.0 mm 0.00 in0.0 mm
03:31 AM 19.2°F-7.1°C 17.8°F-7.9°C 94% Calm Calm -- 28.32 in959.0 mb - 0.00 in0.0 mm 0.00 in0.0 mm
03:32 AM 19.2°F-7.1°C 17.8°F-7.9°C 94% Calm Calm -- 28.32 in959.0 mb - 0.00 in0.0 mm 0.00 in0.0 mm
03:33 AM 19.2°F-7.1°C 17.7°F-7.9°C 94% Calm Calm -- 28.32 in959.0 mb - 0.00 in0.0 mm 0.00 in0.0 mm
03:34 AM 19.0°F-7.2°C 17.6°F-8.0°C 94% Calm Calm -- 28.32 in959.0 mb - 0.00 in0.0 mm 0.00 in0.0 mm
03:35 AM 19.0°F-7.2°C 17.6°F-8.0°C 94% Calm Calm -- 28.32 in959.0 mb - 0.00 in0.0 mm 0.00 in0.0 mm
03:36 AM 19.0°F-7.2°C 17.6°F-8.0°C 94% Calm Calm -- 28.32 in959.0 mb - 0.00 in0.0 mm 0.00 in0.0 mm
03:37 AM 18.9°F-7.3°C 17.5°F-8.1°C 94% Calm Calm -- 28.32 in959.0 mb - 0.00 in0.0 mm 0.00 in0.0 mm
03:38 AM 18.8°F-7.3°C 17.4°F-8.1°C 94% Calm Calm -- 28.32 in959.0 mb - 0.00 in0.0 mm 0.00 in0.0 mm
03:39 AM 18.7°F-7.4°C 17.0°F-8.3°C 93% Calm Calm -- 28.32 in959.0 mb - 0.00 in0.0 mm 0.00 in0.0 mm
03:40 AM 18.7°F-7.4°C 17.0°F-8.3°C 93% Calm Calm -- 28.32 in959.0 mb - 0.00 in0.0 mm 0.00 in0.0 mm
03:41 AM 18.7°F-7.4°C 17.0°F-8.3°C 93% Calm Calm -- 28.32 in959.0 mb - 0.00 in0.0 mm 0.00 in0.0 mm
03:42 AM 18.7°F-7.4°C 17.0°F-8.3°C 93% Calm Calm -- 28.32 in959.0 mb - 0.00 in0.0 mm 0.00 in0.0 mm
03:43 AM 18.7°F-7.4°C 17.0°F-8.3°C 93% Calm Calm -- 28.32 in959.0 mb - 0.00 in0.0 mm 0.00 in0.0 mm
03:44 AM 18.9°F-7.3°C 17.2°F-8.2°C 93% Calm Calm -- 28.32 in959.0 mb - 0.00 in0.0 mm 0.00 in0.0 mm
03:45 AM 18.9°F-7.3°C 17.2°F-8.2°C 93% Calm Calm -- 28.32 in959.0 mb - 0.00 in0.0 mm 0.00 in0.0 mm
03:46 AM 19.0°F-7.2°C 17.3°F-8.2°C 93% Calm Calm -- 28.32 in959.0 mb - 0.00 in0.0 mm 0.00 in0.0 mm
03:47 AM 19.0°F-7.2°C 17.3°F-8.2°C 93% Calm Calm -- 28.32 in959.0 mb - 0.00 in0.0 mm 0.00 in0.0 mm
03:48 AM 19.0°F-7.2°C 17.3°F-8.2°C 93% Calm Calm -- 28.32 in959.0 mb - 0.00 in0.0 mm 0.00 in0.0 mm
04:17 AM 19.0°F-7.2°C 17.3°F-8.2°C 93% Calm Calm -- 28.32 in959.0 mb - 0.00 in0.0 mm 0.00 in0.0 mm
04:18 AM 19.0°F-7.2°C 17.3°F-8.2°C 93% Calm Calm -- 28.32 in959.0 mb - 0.00 in0.0 mm 0.00 in0.0 mm
04:19 AM 19.0°F-7.2°C 17.3°F-8.2°C 93% Calm Calm -- 28.32 in959.0 mb - 0.00 in0.0 mm 0.00 in0.0 mm
04:20 AM 19.8°F-6.8°C 18.6°F-7.4°C 95% Calm Calm -- 28.32 in959.0 mb - 0.00 in0.0 mm 0.00 in0.0 mm
04:21 AM 19.8°F-6.8°C 18.6°F-7.4°C 95% Calm Calm -- 28.32 in959.0 mb - 0.00 in0.0 mm 0.00 in0.0 mm
04:22 AM 19.8°F-6.8°C 18.6°F-7.4°C 95% Calm Calm -- 28.32 in959.0 mb - 0.00 in0.0 mm 0.00 in0.0 mm
04:23 AM 19.8°F-6.8°C 18.6°F-7.4°C 95% Calm Calm -- 28.32 in959.0 mb - 0.00 in0.0 mm 0.00 in0.0 mm
04:24 AM 19.8°F-6.8°C 18.6°F-7.4°C 95% Calm Calm -- 28.32 in959.0 mb - 0.00 in0.0 mm 0.00 in0.0 mm
04:25 AM 19.8°F-6.8°C 18.6°F-7.4°C 95% Calm Calm -- 28.32 in959.0 mb - 0.00 in0.0 mm 0.00 in0.0 mm
04:26 AM 19.8°F-6.8°C 18.6°F-7.4°C 95% Calm Calm -- 28.32 in959.0 mb - 0.00 in0.0 mm 0.00 in0.0 mm
04:27 AM 19.9°F-6.7°C 18.7°F-7.4°C 95% Calm Calm -- 28.32 in959.0 mb - 0.00 in0.0 mm 0.00 in0.0 mm
07:20 AM 18.5°F-7.5°C 17.3°F-8.2°C 95% 1.2 mph NNW1.9 kmh NNW 2.3 mph3.7 kmh 28.34 in959.7 mb - 0.00 in0.0 mm 0.00 in0.0 mm
07:21 AM 18.5°F-7.5°C 17.3°F-8.2°C 95% 2.3 mph NNE3.7 kmh NNE 2.3 mph3.7 kmh 28.34 in959.7 mb - 0.00 in0.0 mm 0.00 in0.0 mm
07:34 AM 18.5°F-7.5°C 17.3°F-8.2°C 95% 1.2 mph NNW1.9 kmh NNW 2.3 mph3.7 kmh 28.34 in959.7 mb - 0.00 in0.0 mm 0.00 in0.0 mm
07:35 AM 18.5°F-7.5°C 17.3°F-8.2°C 95% 1.2 mph NNW1.9 kmh NNW 2.3 mph3.7 kmh 28.34 in959.7 mb - 0.00 in0.0 mm 0.00 in0.0 mm
07:36 AM 18.5°F-7.5°C 17.3°F-8.2°C 95% 1.2 mph NNW1.9 kmh NNW 2.3 mph3.7 kmh 28.34 in959.7 mb - 0.00 in0.0 mm 0.00 in0.0 mm
07:37 AM 18.9°F-7.3°C 17.7°F-7.9°C 95% 2.3 mph NE3.7 kmh NE 2.3 mph3.7 kmh 28.35 in960.0 mb - 0.00 in0.0 mm 0.00 in0.0 mm
07:38 AM 18.9°F-7.3°C 17.8°F-7.9°C 95% 2.3 mph N3.7 kmh N 2.3 mph3.7 kmh 28.34 in959.7 mb - 0.00 in0.0 mm 0.00 in0.0 mm
07:39 AM 19.0°F-7.2°C 17.8°F-7.9°C 95% 1.2 mph NNE1.9 kmh NNE 1.2 mph1.9 kmh 28.34 in959.7 mb - 0.00 in0.0 mm 0.00 in0.0 mm
07:40 AM 19.0°F-7.2°C 18.1°F-7.7°C 96% 1.2 mph NNE1.9 kmh NNE 1.2 mph1.9 kmh 28.34 in959.7 mb - 0.00 in0.0 mm 0.00 in0.0 mm
07:41 AM 19.2°F-7.1°C 18.2°F-7.7°C 96% Calm Calm -- 28.34 in959.7 mb - 0.00 in0.0 mm 0.00 in0.0 mm
07:42 AM 19.2°F-7.1°C 18.2°F-7.7°C 96% Calm Calm -- 28.34 in959.7 mb - 0.00 in0.0 mm 0.00 in0.0 mm
07:43 AM 19.2°F-7.1°C 18.2°F-7.7°C 96% Calm Calm -- 28.34 in959.7 mb - 0.00 in0.0 mm 0.00 in0.0 mm
07:44 AM 19.2°F-7.1°C 18.2°F-7.7°C 96% Calm Calm -- 28.34 in959.7 mb - 0.00 in0.0 mm 0.00 in0.0 mm
07:45 AM 19.2°F-7.1°C 18.2°F-7.7°C 96% Calm Calm -- 28.34 in959.7 mb - 0.00 in0.0 mm 0.00 in0.0 mm
07:46 AM 19.2°F-7.1°C 18.2°F-7.7°C 96% Calm Calm -- 28.34 in959.7 mb - 0.00 in0.0 mm 0.00 in0.0 mm
07:47 AM 19.2°F-7.1°C 18.2°F-7.7°C 96% Calm Calm -- 28.34 in959.7 mb - 0.00 in0.0 mm 0.00 in0.0 mm
07:48 AM 19.2°F-7.1°C 18.2°F-7.7°C 96% Calm Calm -- 28.34 in959.7 mb - 0.00 in0.0 mm 0.00 in0.0 mm
07:49 AM 19.2°F-7.1°C 18.2°F-7.7°C 96% Calm Calm -- 28.35 in960.0 mb - 0.00 in0.0 mm 0.00 in0.0 mm
07:50 AM 19.0°F-7.2°C 18.0°F-7.8°C 96% Calm Calm -- 28.35 in960.0 mb - 0.00 in0.0 mm 0.00 in0.0 mm
07:51 AM 19.0°F-7.2°C 18.0°F-7.8°C 96% Calm Calm -- 28.35 in960.0 mb - 0.00 in0.0 mm 0.00 in0.0 mm
07:52 AM 19.0°F-7.2°C 18.0°F-7.8°C 96% Calm Calm 1.2 mph1.9 kmh 28.35 in960.0 mb - 0.00 in0.0 mm 0.00 in0.0 mm
07:53 AM 19.0°F-7.2°C 18.0°F-7.8°C 96% 1.2 mph S1.9 kmh S 2.3 mph3.7 kmh 28.35 in960.0 mb - 0.00 in0.0 mm 0.00 in0.0 mm
07:54 AM 19.0°F-7.2°C 18.0°F-7.8°C 96% 2.3 mph S3.7 kmh S 2.3 mph3.7 kmh 28.35 in960.0 mb - 0.00 in0.0 mm 0.00 in0.0 mm
07:55 AM 18.9°F-7.3°C 18.0°F-7.8°C 96% 2.3 mph SE3.7 kmh SE 2.3 mph3.7 kmh 28.35 in960.0 mb - 0.00 in0.0 mm 0.00 in0.0 mm
07:56 AM 18.9°F-7.3°C 17.9°F-7.8°C 96% 1.2 mph ESE1.9 kmh ESE 2.3 mph3.7 kmh 28.35 in960.0 mb - 0.00 in0.0 mm 0.00 in0.0 mm
07:57 AM 18.9°F-7.3°C 17.9°F-7.8°C 96% 1.2 mph S1.9 kmh S 1.2 mph1.9 kmh 28.35 in960.0 mb - 0.00 in0.0 mm 0.00 in0.0 mm
07:58 AM 18.9°F-7.3°C 17.9°F-7.8°C 96% 1.2 mph S1.9 kmh S -- 28.35 in960.0 mb - 0.00 in0.0 mm 0.00 in0.0 mm
07:59 AM 18.9°F-7.3°C 17.9°F-7.8°C 96% Calm Calm 1.2 mph1.9 kmh 28.35 in960.0 mb - 0.00 in0.0 mm 0.00 in0.0 mm
08:00 AM 18.9°F-7.3°C 17.9°F-7.8°C 96% 1.2 mph ESE1.9 kmh ESE 1.2 mph1.9 kmh 28.35 in960.0 mb - 0.00 in0.0 mm 0.00 in0.0 mm
08:01 AM 18.9°F-7.3°C 17.9°F-7.8°C 96% Calm Calm -- 28.35 in960.0 mb - 0.00 in0.0 mm 0.00 in0.0 mm
08:02 AM 18.9°F-7.3°C 17.9°F-7.8°C 96% Calm Calm -- 28.35 in960.0 mb - 0.00 in0.0 mm 0.00 in0.0 mm
08:03 AM 18.9°F-7.3°C 17.9°F-7.8°C 96% Calm Calm -- 28.35 in960.0 mb - 0.00 in0.0 mm 0.00 in0.0 mm
08:04 AM 19.0°F-7.2°C 18.0°F-7.8°C 96% Calm Calm -- 28.35 in960.0 mb - 0.00 in0.0 mm 0.00 in0.0 mm
08:05 AM 19.0°F-7.2°C 18.0°F-7.8°C 96% Calm Calm -- 28.35 in960.0 mb - 0.00 in0.0 mm 0.00 in0.0 mm
08:06 AM 19.0°F-7.2°C 18.0°F-7.8°C 96% Calm Calm -- 28.35 in960.0 mb - 0.00 in0.0 mm 0.00 in0.0 mm
08:07 AM 19.0°F-7.2°C 18.0°F-7.8°C 96% Calm Calm 1.2 mph1.9 kmh 28.35 in960.0 mb - 0.00 in0.0 mm 0.00 in0.0 mm
08:08 AM 19.0°F-7.2°C 18.0°F-7.8°C 96% 1.2 mph SSE1.9 kmh SSE 1.2 mph1.9 kmh 28.35 in960.0 mb - 0.00 in0.0 mm 0.00 in0.0 mm
08:09 AM 19.0°F-7.2°C 17.8°F-7.9°C 95% Calm Calm -- 28.35 in960.0 mb - 0.00 in0.0 mm 0.00 in0.0 mm
08:10 AM 19.0°F-7.2°C 17.8°F-7.9°C 95% Calm Calm -- 28.35 in960.0 mb - 0.00 in0.0 mm 0.00 in0.0 mm
08:11 AM 19.0°F-7.2°C 17.8°F-7.9°C 95% Calm Calm -- 28.35 in960.0 mb - 0.00 in0.0 mm 0.00 in0.0 mm
08:12 AM 19.1°F-7.2°C 17.9°F-7.8°C 95% Calm Calm -- 28.35 in960.0 mb - 0.00 in0.0 mm 0.00 in0.0 mm
08:13 AM 19.3°F-7.1°C 18.1°F-7.7°C 95% Calm Calm -- 28.35 in960.0 mb - 0.00 in0.0 mm 0.00 in0.0 mm
08:14 AM 19.4°F-7.0°C 18.2°F-7.7°C 95% Calm Calm -- 28.36 in960.4 mb - 0.00 in0.0 mm 0.00 in0.0 mm
08:15 AM 19.7°F-6.8°C 18.5°F-7.5°C 95% Calm Calm -- 28.36 in960.4 mb - 0.00 in0.0 mm 0.00 in0.0 mm
08:16 AM 20.0°F-6.7°C 18.8°F-7.3°C 95% Calm Calm -- 28.36 in960.4 mb - 0.00 in0.0 mm 0.00 in0.0 mm
08:17 AM 20.3°F-6.5°C 19.1°F-7.2°C 95% Calm Calm -- 28.36 in960.4 mb - 0.00 in0.0 mm 0.00 in0.0 mm
08:18 AM 20.5°F-6.4°C 19.3°F-7.1°C 95% Calm Calm -- 28.36 in960.4 mb - 0.00 in0.0 mm 0.00 in0.0 mm
08:19 AM 20.8°F-6.2°C 19.6°F-6.9°C 95% Calm Calm -- 28.36 in960.4 mb - 0.00 in0.0 mm 0.00 in0.0 mm
08:20 AM 20.8°F-6.2°C 19.6°F-6.9°C 95% Calm Calm -- 28.36 in960.4 mb - 0.00 in0.0 mm 0.00 in0.0 mm
08:21 AM 20.8°F-6.2°C 19.6°F-6.9°C 95% Calm Calm -- 28.36 in960.4 mb - 0.00 in0.0 mm 0.00 in0.0 mm
08:22 AM 20.9°F-6.2°C 19.7°F-6.8°C 95% Calm Calm -- 28.36 in960.4 mb - 0.00 in0.0 mm 0.00 in0.0 mm
08:23 AM 21.2°F-6.0°C 20.0°F-6.7°C 95% Calm Calm -- 28.36 in960.4 mb - 0.00 in0.0 mm 0.00 in0.0 mm
08:24 AM 21.2°F-6.0°C 20.0°F-6.7°C 95% Calm Calm -- 28.36 in960.4 mb - 0.00 in0.0 mm 0.00 in0.0 mm
08:25 AM 21.3°F-5.9°C 20.1°F-6.6°C 95% Calm Calm -- 28.36 in960.4 mb - 0.00 in0.0 mm 0.00 in0.0 mm
08:26 AM 21.6°F-5.8°C 20.4°F-6.4°C 95% Calm Calm -- 28.36 in960.4 mb - 0.00 in0.0 mm 0.00 in0.0 mm
08:27 AM 21.9°F-5.6°C 20.6°F-6.3°C 95% Calm Calm -- 28.36 in960.4 mb - 0.00 in0.0 mm 0.00 in0.0 mm
08:28 AM 21.8°F-5.7°C 20.6°F-6.3°C 95% Calm Calm -- 28.36 in960.4 mb - 0.00 in0.0 mm 0.00 in0.0 mm
08:29 AM 22.1°F-5.5°C 20.9°F-6.2°C 95% Calm Calm -- 28.36 in960.4 mb - 0.00 in0.0 mm 0.00 in0.0 mm
08:30 AM 22.2°F-5.4°C 21.0°F-6.1°C 95% Calm Calm -- 28.36 in960.4 mb - 0.00 in0.0 mm 0.00 in0.0 mm
08:31 AM 22.4°F-5.3°C 21.2°F-6.0°C 95% Calm Calm -- 28.36 in960.4 mb - 0.00 in0.0 mm 0.00 in0.0 mm
08:32 AM 22.6°F-5.2°C 21.4°F-5.9°C 95% Calm Calm -- 28.36 in960.4 mb - 0.00 in0.0 mm 0.00 in0.0 mm
08:33 AM 22.9°F-5.1°C 21.4°F-5.9°C 94% Calm Calm -- 28.36 in960.4 mb - 0.00 in0.0 mm 0.00 in0.0 mm
08:34 AM 23.3°F-4.8°C 21.8°F-5.7°C 94% Calm Calm -- 28.36 in960.4 mb - 0.00 in0.0 mm 0.00 in0.0 mm
08:35 AM 23.5°F-4.7°C 22.0°F-5.6°C 94% Calm Calm -- 28.36 in960.4 mb - 0.00 in0.0 mm 0.00 in0.0 mm
08:36 AM 23.5°F-4.7°C 21.8°F-5.7°C 93% Calm Calm -- 28.36 in960.4 mb - 0.00 in0.0 mm 0.00 in0.0 mm
08:37 AM 23.5°F-4.7°C 21.8°F-5.7°C 93% Calm Calm -- 28.36 in960.4 mb - 0.00 in0.0 mm 0.00 in0.0 mm
08:38 AM 23.5°F-4.7°C 21.5°F-5.8°C 92% Calm Calm -- 28.36 in960.4 mb - 0.00 in0.0 mm 0.00 in0.0 mm
08:39 AM 23.8°F-4.6°C 21.8°F-5.7°C 92% Calm Calm -- 28.36 in960.4 mb - 0.00 in0.0 mm 0.00 in0.0 mm
08:40 AM 23.9°F-4.5°C 21.9°F-5.6°C 92% Calm Calm -- 28.36 in960.4 mb - 0.00 in0.0 mm 0.00 in0.0 mm
08:41 AM 24.0°F-4.4°C 22.3°F-5.4°C 93% Calm Calm -- 28.36 in960.4 mb - 0.00 in0.0 mm 0.00 in0.0 mm
08:42 AM 24.3°F-4.3°C 22.6°F-5.2°C 93% Calm Calm -- 28.36 in960.4 mb - 0.00 in0.0 mm 0.00 in0.0 mm
08:43 AM 24.3°F-4.3°C 22.3°F-5.4°C 92% Calm Calm -- 28.36 in960.4 mb - 0.00 in0.0 mm 0.00 in0.0 mm
08:44 AM 24.3°F-4.3°C 22.1°F-5.5°C 91% Calm Calm -- 28.36 in960.4 mb - 0.00 in0.0 mm 0.00 in0.0 mm
08:45 AM 24.3°F-4.3°C 22.1°F-5.5°C 91% Calm Calm -- 28.36 in960.4 mb - 0.00 in0.0 mm 0.00 in0.0 mm
08:46 AM 24.4°F-4.2°C 22.2°F-5.4°C 91% Calm Calm -- 28.36 in960.4 mb - 0.00 in0.0 mm 0.00 in0.0 mm
08:47 AM 24.2°F-4.3°C 21.9°F-5.6°C 91% Calm Calm -- 28.36 in960.4 mb - 0.00 in0.0 mm 0.00 in0.0 mm
08:48 AM 23.9°F-4.5°C 21.7°F-5.7°C 91% Calm Calm -- 28.36 in960.4 mb - 0.00 in0.0 mm 0.00 in0.0 mm
08:49 AM 23.9°F-4.5°C 21.9°F-5.6°C 92% Calm Calm -- 28.36 in960.4 mb - 0.00 in0.0 mm 0.00 in0.0 mm
08:50 AM 24.2°F-4.3°C 22.2°F-5.4°C 92% Calm Calm -- 28.36 in960.4 mb - 0.00 in0.0 mm 0.00 in0.0 mm
08:51 AM 24.3°F-4.3°C 22.1°F-5.5°C 91% Calm Calm -- 28.36 in960.4 mb - 0.00 in0.0 mm 0.00 in0.0 mm
08:52 AM 24.4°F-4.2°C 22.2°F-5.4°C 91% Calm Calm -- 28.36 in960.4 mb - 0.00 in0.0 mm 0.00 in0.0 mm
08:53 AM 24.6°F-4.1°C 22.3°F-5.4°C 91% Calm Calm -- 28.36 in960.4 mb - 0.00 in0.0 mm 0.00 in0.0 mm
08:54 AM 24.7°F-4.1°C 22.5°F-5.3°C 91% Calm Calm -- 28.36 in960.4 mb - 0.00 in0.0 mm 0.00 in0.0 mm
08:55 AM 24.8°F-4.0°C 22.5°F-5.3°C 91% Calm Calm -- 28.36 in960.4 mb - 0.00 in0.0 mm 0.00 in0.0 mm
08:56 AM 24.8°F-4.0°C 22.6°F-5.2°C 91% Calm Calm -- 28.36 in960.4 mb - 0.00 in0.0 mm 0.00 in0.0 mm
08:57 AM 25.0°F-3.9°C 22.7°F-5.2°C 91% Calm Calm -- 28.36 in960.4 mb - 0.00 in0.0 mm 0.00 in0.0 mm
08:58 AM 25.2°F-3.8°C 23.0°F-5.0°C 91% Calm Calm -- 28.36 in960.4 mb - 0.00 in0.0 mm 0.00 in0.0 mm
08:59 AM 25.5°F-3.6°C 22.9°F-5.1°C 90% Calm Calm -- 28.36 in960.4 mb - 0.00 in0.0 mm 0.00 in0.0 mm
09:00 AM 25.5°F-3.6°C 23.0°F-5.0°C 90% Calm Calm -- 28.36 in960.4 mb - 0.00 in0.0 mm 0.00 in0.0 mm
09:01 AM 25.5°F-3.6°C 23.0°F-5.0°C 90% Calm Calm -- 28.36 in960.4 mb - 0.00 in0.0 mm 0.00 in0.0 mm
09:02 AM 25.5°F-3.6°C 23.0°F-5.0°C 90% Calm Calm -- 28.36 in960.4 mb - 0.00 in0.0 mm 0.00 in0.0 mm
09:03 AM 25.5°F-3.6°C 23.0°F-5.0°C 90% Calm Calm -- 28.36 in960.4 mb - 0.00 in0.0 mm 0.00 in0.0 mm
09:04 AM 25.7°F-3.5°C 23.2°F-4.9°C 90% Calm Calm -- 28.36 in960.4 mb - 0.00 in0.0 mm 0.00 in0.0 mm
09:05 AM 25.8°F-3.4°C 23.0°F-5.0°C 89% Calm Calm -- 28.36 in960.4 mb - 0.00 in0.0 mm 0.00 in0.0 mm
09:06 AM 26.0°F-3.3°C 23.2°F-4.9°C 89% Calm Calm -- 28.36 in960.4 mb - 0.00 in0.0 mm 0.00 in0.0 mm
09:07 AM 26.1°F-3.3°C 23.0°F-5.0°C 88% Calm Calm -- 28.36 in960.4 mb - 0.00 in0.0 mm 0.00 in0.0 mm
09:08 AM 25.9°F-3.4°C 22.8°F-5.1°C 88% Calm Calm -- 28.36 in960.4 mb - 0.00 in0.0 mm 0.00 in0.0 mm
09:09 AM 25.9°F-3.4°C 22.9°F-5.1°C 88% Calm Calm -- 28.36 in960.4 mb - 0.00 in0.0 mm 0.00 in0.0 mm
09:10 AM 26.2°F-3.2°C 23.1°F-4.9°C 88% Calm Calm -- 28.36 in960.4 mb - 0.00 in0.0 mm 0.00 in0.0 mm
09:11 AM 26.2°F-3.2°C 23.1°F-4.9°C 88% Calm Calm -- 28.36 in960.4 mb - 0.00 in0.0 mm 0.00 in0.0 mm
09:12 AM 26.1°F-3.3°C 23.5°F-4.7°C 90% Calm Calm -- 28.36 in960.4 mb - 0.00 in0.0 mm 0.00 in0.0 mm
09:13 AM 25.9°F-3.4°C 23.4°F-4.8°C 90% Calm Calm -- 28.36 in960.4 mb - 0.00 in0.0 mm 0.00 in0.0 mm
09:14 AM 26.2°F-3.2°C 23.6°F-4.7°C 90% Calm Calm -- 28.36 in960.4 mb - 0.00 in0.0 mm 0.00 in0.0 mm
09:15 AM 26.4°F-3.1°C 23.8°F-4.6°C 90% Calm Calm -- 28.36 in960.4 mb - 0.00 in0.0 mm 0.00 in0.0 mm
09:16 AM 26.8°F-2.9°C 24.3°F-4.3°C 90% Calm Calm -- 28.36 in960.4 mb - 0.00 in0.0 mm 0.00 in0.0 mm
09:17 AM 26.9°F-2.8°C 24.3°F-4.3°C 90% Calm Calm -- 28.36 in960.4 mb - 0.00 in0.0 mm 0.00 in0.0 mm
09:18 AM 27.0°F-2.8°C 24.5°F-4.2°C 90% Calm Calm -- 28.36 in960.4 mb - 0.00 in0.0 mm 0.00 in0.0 mm
09:19 AM 26.7°F-2.9°C 24.2°F-4.3°C 90% Calm Calm -- 28.36 in960.4 mb - 0.00 in0.0 mm 0.00 in0.0 mm
09:20 AM 26.6°F-3.0°C 24.1°F-4.4°C 90% Calm Calm -- 28.36 in960.4 mb - 0.00 in0.0 mm 0.00 in0.0 mm
09:21 AM 26.6°F-3.0°C 24.1°F-4.4°C 90% Calm Calm -- 28.36 in960.4 mb - 0.00 in0.0 mm 0.00 in0.0 mm
09:22 AM 27.0°F-2.8°C 24.5°F-4.2°C 90% Calm Calm -- 28.36 in960.4 mb - 0.00 in0.0 mm 0.00 in0.0 mm
09:23 AM 27.7°F-2.4°C 25.1°F-3.8°C 90% Calm Calm -- 28.36 in960.4 mb - 0.00 in0.0 mm 0.00 in0.0 mm
09:24 AM 28.1°F-2.2°C 25.5°F-3.6°C 90% Calm Calm -- 28.36 in960.4 mb - 0.00 in0.0 mm 0.00 in0.0 mm
09:25 AM 28.4°F-2.0°C 25.8°F-3.4°C 90% Calm Calm -- 28.36 in960.4 mb - 0.00 in0.0 mm 0.00 in0.0 mm
09:26 AM 28.4°F-2.0°C 25.6°F-3.6°C 89% 1.2 mph SSE1.9 kmh SSE 3.5 mph5.6 kmh 28.37 in960.7 mb - 0.00 in0.0 mm 0.00 in0.0 mm
09:27 AM 28.4°F-2.0°C 25.6°F-3.6°C 89% 2.3 mph ESE3.7 kmh ESE 3.5 mph5.6 kmh 28.37 in960.7 mb - 0.00 in0.0 mm 0.00 in0.0 mm
09:28 AM 28.4°F-2.0°C 25.6°F-3.6°C 89% 2.3 mph SSE3.7 kmh SSE 3.5 mph5.6 kmh 28.37 in960.7 mb - 0.00 in0.0 mm 0.00 in0.0 mm
09:29 AM 28.5°F-1.9°C 25.7°F-3.5°C 89% 2.3 mph SSE3.7 kmh SSE 3.5 mph5.6 kmh 28.37 in960.7 mb - 0.00 in0.0 mm 0.00 in0.0 mm
09:30 AM 28.7°F-1.8°C 25.6°F-3.6°C 88% 2.3 mph S3.7 kmh S 3.5 mph5.6 kmh 28.37 in960.7 mb - 0.00 in0.0 mm 0.00 in0.0 mm
09:31 AM 28.8°F-1.8°C 25.4°F-3.7°C 87% 2.3 mph SW3.7 kmh SW 2.3 mph3.7 kmh 28.37 in960.7 mb - 0.00 in0.0 mm 0.00 in0.0 mm
09:32 AM 28.8°F-1.8°C 25.4°F-3.7°C 87% 2.3 mph SSW3.7 kmh SSW 2.3 mph3.7 kmh 28.37 in960.7 mb - 0.00 in0.0 mm 0.00 in0.0 mm
09:33 AM 28.8°F-1.8°C 25.2°F-3.8°C 86% 2.3 mph SW3.7 kmh SW 2.3 mph3.7 kmh 28.37 in960.7 mb - 0.00 in0.0 mm 0.00 in0.0 mm
09:34 AM 28.9°F-1.7°C 25.2°F-3.8°C 86% 1.2 mph S1.9 kmh S 1.2 mph1.9 kmh 28.37 in960.7 mb - 0.00 in0.0 mm 0.00 in0.0 mm
09:35 AM 29.0°F-1.7°C 25.3°F-3.7°C 86% Calm Calm -- 28.37 in960.7 mb - 0.00 in0.0 mm 0.00 in0.0 mm
09:36 AM 29.1°F-1.6°C 25.4°F-3.7°C 86% Calm Calm 1.2 mph1.9 kmh 28.37 in960.7 mb - 0.00 in0.0 mm 0.00 in0.0 mm
09:37 AM 29.0°F-1.7°C 25.3°F-3.7°C 86% 1.2 mph SSW1.9 kmh SSW 1.2 mph1.9 kmh 28.37 in960.7 mb - 0.00 in0.0 mm 0.00 in0.0 mm
09:38 AM 29.3°F-1.5°C 25.6°F-3.6°C 86% Calm Calm -- 28.37 in960.7 mb - 0.00 in0.0 mm 0.00 in0.0 mm
09:39 AM 29.5°F-1.4°C 25.3°F-3.7°C 84% Calm Calm -- 28.37 in960.7 mb - 0.00 in0.0 mm 0.00 in0.0 mm
09:40 AM 29.0°F-1.7°C 25.1°F-3.8°C 85% Calm Calm -- 28.37 in960.7 mb - 0.00 in0.0 mm 0.00 in0.0 mm
09:41 AM 28.9°F-1.7°C 24.9°F-3.9°C 85% Calm Calm -- 28.37 in960.7 mb - 0.00 in0.0 mm 0.00 in0.0 mm
09:42 AM 28.8°F-1.8°C 24.9°F-3.9°C 85% Calm Calm -- 28.37 in960.7 mb - 0.00 in0.0 mm 0.00 in0.0 mm
09:43 AM 29.0°F-1.7°C 24.7°F-4.1°C 84% Calm Calm -- 28.37 in960.7 mb - 0.00 in0.0 mm 0.00 in0.0 mm
09:44 AM 29.2°F-1.6°C 25.0°F-3.9°C 84% Calm Calm -- 28.37 in960.7 mb - 0.00 in0.0 mm 0.00 in0.0 mm
09:45 AM 29.9°F-1.2°C 24.7°F-4.1°C 81% Calm Calm 1.2 mph1.9 kmh 28.37 in960.7 mb - 0.00 in0.0 mm 0.00 in0.0 mm
09:46 AM 30.4°F-0.9°C 25.3°F-3.7°C 81% 1.2 mph S1.9 kmh S 2.3 mph3.7 kmh 28.37 in960.7 mb - 0.00 in0.0 mm 0.00 in0.0 mm
09:47 AM 30.8°F-0.7°C 25.4°F-3.7°C 80% 1.2 mph S1.9 kmh S 1.2 mph1.9 kmh 28.37 in960.7 mb - 0.00 in0.0 mm 0.00 in0.0 mm
09:48 AM 30.7°F-0.7°C 25.3°F-3.7°C 80% Calm Calm -- 28.37 in960.7 mb - 0.00 in0.0 mm 0.00 in0.0 mm
09:49 AM 30.9°F-0.6°C 25.4°F-3.7°C 80% Calm Calm -- 28.37 in960.7 mb - 0.00 in0.0 mm 0.00 in0.0 mm
09:50 AM 30.9°F-0.6°C 25.8°F-3.4°C 81% Calm Calm -- 28.38 in961.1 mb - 0.00 in0.0 mm 0.00 in0.0 mm
09:51 AM 31.1°F-0.5°C 25.9°F-3.4°C 81% Calm Calm -- 28.38 in961.1 mb - 0.00 in0.0 mm 0.00 in0.0 mm
09:52 AM 30.8°F-0.7°C 25.6°F-3.6°C 81% Calm Calm -- 28.38 in961.1 mb - 0.00 in0.0 mm 0.00 in0.0 mm